Time;durP1;ratioP1;P1;durP2;ratioP2;P2;SDS_P1;SDS_P2;PMS_P1;PMS_P2;Temp;Humidity;BMP_temperature;BMP_pressure;BME280_temperature;BME280_humidity;BME280_pressure;Samples;Min_cycle;Max_cycle;Signal;HPM_P1;HPM_P2
2021/03/30 00:06:56;;;;;;;8.45;2.45;;;16.20;39.60;;;;;;20914481;28;20496;-57
2021/03/30 00:16:56;;;;;;;7.85;2.60;;;16.20;39.60;;;;;;20914734;28;20036;-56
2021/03/30 00:26:57;;;;;;;7.88;2.05;;;16.10;39.80;;;;;;20914176;28;20106;-58
2021/03/30 00:36:58;;;;;;;8.18;2.78;;;16.00;39.80;;;;;;20913750;28;20033;-58
2021/03/30 00:47:01;;;;;;;9.20;2.20;;;16.00;39.90;;;;;;20913347;28;20463;-56
2021/03/30 00:57:03;;;;;;;10.10;2.70;;;15.90;39.90;;;;;;20913082;28;20408;-57
2021/03/30 01:07:06;;;;;;;11.27;2.95;;;15.90;40.10;;;;;;20912514;28;20048;-60
2021/03/30 01:17:30;;;;;;;10.13;2.50;;;15.90;39.90;;;;;;20912670;28;20048;-58
2021/03/30 01:27:33;;;;;;;6.80;3.20;;;15.90;39.90;;;;;;20753571;28;20046;-57
2021/03/30 01:37:39;;;;;;;6.17;2.27;;;15.80;40.00;;;;;;20753558;28;20563;-57
2021/03/30 01:47:40;;;;;;;9.13;2.60;;;15.80;40.20;;;;;;20753393;28;20073;-58
2021/03/30 01:57:46;;;;;;;9.32;2.92;;;15.70;40.00;;;;;;20769451;28;20393;-57
2021/03/30 02:07:56;;;;;;;6.35;2.10;;;15.70;40.30;;;;;;20841452;28;20034;-56
2021/03/30 02:18:06;;;;;;;5.40;2.08;;;15.70;40.30;;;;;;20840981;28;20029;-57
2021/03/30 02:28:12;;;;;;;8.15;2.13;;;15.70;40.40;;;;;;20907714;28;20056;-57
2021/03/30 02:38:14;;;;;;;9.20;2.85;;;15.70;40.30;;;;;;20903549;28;20031;-57
2021/03/30 02:48:15;;;;;;;9.18;2.38;;;15.60;40.40;;;;;;20920945;28;20511;-57
2021/03/30 02:58:16;;;;;;;6.30;2.45;;;15.60;40.30;;;;;;20919299;28;20025;-57
2021/03/30 03:08:19;;;;;;;7.00;2.50;;;15.60;40.30;;;;;;20918158;28;20087;-58
2021/03/30 03:18:20;;;;;;;8.98;2.72;;;15.50;40.50;;;;;;20917763;28;20033;-58
2021/03/30 03:28:21;;;;;;;10.50;2.80;;;15.50;40.60;;;;;;20917308;28;20060;-57
2021/03/30 03:38:23;;;;;;;7.18;2.60;;;15.40;40.80;;;;;;20916838;28;20028;-57
2021/03/30 03:48:23;;;;;;;9.88;3.20;;;15.40;40.90;;;;;;20915672;28;20033;-57
2021/03/30 03:58:28;;;;;;;7.63;2.72;;;15.40;40.90;;;;;;20915600;28;20028;-57
2021/03/30 04:08:34;;;;;;;7.88;2.30;;;15.30;41.20;;;;;;20914768;28;20528;-57
2021/03/30 04:18:39;;;;;;;11.38;2.72;;;15.20;41.20;;;;;;20914709;28;20036;-59
2021/03/30 04:28:40;;;;;;;14.13;4.03;;;15.20;41.30;;;;;;20913910;28;20061;-57
2021/03/30 04:38:41;;;;;;;9.63;2.90;;;15.10;41.70;;;;;;20913949;28;20060;-57
2021/03/30 04:48:42;;;;;;;10.68;3.47;;;14.90;42.10;;;;;;20913554;28;20119;-59
2021/03/30 04:58:42;;;;;;;9.45;2.50;;;15.00;41.90;;;;;;20924033;28;20078;-57
2021/03/30 05:08:43;;;;;;;9.82;3.13;;;14.90;42.10;;;;;;20927272;28;20114;-57
2021/03/30 05:18:44;;;;;;;7.50;2.90;;;15.00;41.90;;;;;;20928544;28;20496;-57
2021/03/30 05:28:45;;;;;;;10.65;2.95;;;14.90;42.10;;;;;;20927754;28;20476;-57
2021/03/30 05:38:46;;;;;;;7.30;2.83;;;14.80;43.20;;;;;;20927389;28;20017;-58
2021/03/30 05:48:48;;;;;;;9.80;3.30;;;14.70;43.50;;;;;;20925978;28;20389;-58
2021/03/30 05:58:50;;;;;;;14.80;4.05;;;14.70;44.00;;;;;;20924830;28;20027;-57
2021/03/30 06:08:51;;;;;;;9.05;4.15;;;14.70;43.60;;;;;;20922914;28;20496;-57
2021/03/30 06:19:10;;;;;;;9.10;3.00;;;14.70;43.30;;;;;;20923046;28;20410;-57
2021/03/30 06:29:24;;;;;;;12.43;3.70;;;14.80;42.80;;;;;;20921830;28;20507;-58
2021/03/30 06:39:40;;;;;;;10.98;3.92;;;14.80;42.70;;;;;;20922115;28;20023;-58
2021/03/30 06:49:51;;;;;;;15.65;5.10;;;15.00;41.50;;;;;;20920712;28;20041;-57
2021/03/30 06:59:52;;;;;;;11.68;4.38;;;14.90;41.90;;;;;;20919001;28;20379;-58
2021/03/30 07:09:53;;;;;;;14.73;3.22;;;15.00;41.60;;;;;;20919609;28;20173;-59
2021/03/30 07:19:58;;;;;;;8.07;2.78;;;15.20;41.00;;;;;;20918069;28;20118;-58
2021/03/30 07:30:00;;;;;;;10.27;3.10;;;15.30;40.20;;;;;;20916886;28;20074;-57
2021/03/30 07:40:03;;;;;;;10.63;2.85;;;15.40;40.20;;;;;;20898736;28;20037;-61
2021/03/30 07:50:09;;;;;;;14.43;3.80;;;15.70;39.70;;;;;;20916134;28;20111;-57
2021/03/30 08:00:11;;;;;;;10.45;3.28;;;16.00;38.90;;;;;;20915312;28;20128;-59
2021/03/30 08:10:23;;;;;;;8.75;2.65;;;16.30;38.10;;;;;;20913822;28;20082;-60
2021/03/30 08:20:26;;;;;;;13.43;3.22;;;16.70;37.20;;;;;;20912945;28;20167;-58
2021/03/30 08:30:27;;;;;;;14.60;3.60;;;16.90;37.20;;;;;;20912658;28;20094;-59
2021/03/30 08:40:36;;;;;;;9.75;2.78;;;17.00;37.00;;;;;;20912677;28;20037;-59
2021/03/30 08:50:39;;;;;;;11.07;2.55;;;17.20;37.00;;;;;;20912736;28;20112;-59
2021/03/30 09:00:40;;;;;;;14.50;2.97;;;17.30;35.90;;;;;;20912037;28;20064;-57
2021/03/30 09:10:40;;;;;;;8.30;2.75;;;17.40;36.30;;;;;;20912612;28;20030;-57
2021/03/30 09:20:42;;;;;;;11.85;3.45;;;17.70;35.10;;;;;;20911181;28;20056;-57
2021/03/30 09:30:46;;;;;;;10.57;3.50;;;17.70;35.10;;;;;;20911136;28;20546;-57
2021/03/30 09:40:47;;;;;;;8.07;3.05;;;17.80;34.60;;;;;;20912398;28;20476;-58
2021/03/30 09:50:50;;;;;;;9.73;3.25;;;17.90;34.50;;;;;;20925407;28;20317;-57
2021/03/30 10:00:57;;;;;;;8.32;2.58;;;18.10;34.00;;;;;;20923500;28;20045;-58
2021/03/30 10:10:58;;;;;;;9.25;2.60;;;18.30;33.60;;;;;;20908470;28;20033;-59
2021/03/30 10:21:05;;;;;;;12.68;2.90;;;18.50;35.20;;;;;;20851499;28;20418;-60
2021/03/30 10:31:21;;;;;;;10.25;3.10;;;18.70;35.20;;;;;;20914684;28;20033;-56
2021/03/30 10:41:35;;;;;;;12.35;3.10;;;19.00;34.50;;;;;;20861016;28;20083;-59
2021/03/30 10:51:41;;;;;;;10.82;2.88;;;19.20;32.40;;;;;;20875292;28;20464;-56
2021/03/30 11:01:42;;;;;;;10.10;2.65;;;19.30;34.30;;;;;;20919500;28;20052;-56
2021/03/30 11:11:42;;;;;;;15.85;3.58;;;19.60;33.50;;;;;;20919230;28;20021;-59
2021/03/30 11:21:44;;;;;;;11.30;3.35;;;19.80;31.80;;;;;;20867317;28;20088;-61
2021/03/30 11:32:00;;;;;;;11.10;4.28;;;19.80;31.50;;;;;;20878460;28;20112;-59
2021/03/30 11:42:01;;;;;;;23.42;4.70;;;20.10;30.90;;;;;;20886085;28;20119;-55
2021/03/30 11:52:03;;;;;;;11.48;3.40;;;20.20;32.00;;;;;;20896008;28;20060;-54
2021/03/30 12:02:03;;;;;;;12.82;3.58;;;20.50;30.00;;;;;;20881057;28;20073;-55
2021/03/30 12:12:05;;;;;;;12.10;3.70;;;20.60;29.80;;;;;;20876935;28;20029;-56
2021/03/30 12:22:06;;;;;;;9.93;3.40;;;20.90;29.10;;;;;;20880424;28;20080;-58
2021/03/30 12:32:12;;;;;;;13.73;3.33;;;21.30;27.80;;;;;;20831293;28;20026;-57
2021/03/30 12:42:14;;;;;;;10.23;2.95;;;21.60;26.80;;;;;;20830789;28;20049;-59
2021/03/30 12:52:14;;;;;;;10.15;3.17;;;21.70;26.10;;;;;;20812785;28;20025;-56
2021/03/30 13:02:15;;;;;;;13.25;3.97;;;21.90;25.70;;;;;;20830529;28;20385;-57
2021/03/30 13:12:17;;;;;;;12.98;3.40;;;22.00;26.20;;;;;;20829988;28;20017;-57
2021/03/30 13:22:19;;;;;;;10.45;2.72;;;21.90;26.50;;;;;;20844802;28;20136;-55
2021/03/30 13:32:20;;;;;;;10.27;3.23;;;22.00;26.40;;;;;;20827263;28;20404;-57
2021/03/30 13:42:21;;;;;;;13.25;3.65;;;22.00;26.80;;;;;;20844148;28;20041;-57
2021/03/30 13:52:21;;;;;;;12.95;3.17;;;22.10;26.70;;;;;;20842003;28;20037;-56
2021/03/30 14:02:22;;;;;;;15.93;4.57;;;22.10;26.70;;;;;;20841913;28;20036;-56
2021/03/30 14:12:41;;;;;;;10.98;3.35;;;22.10;27.10;;;;;;20841760;28;20491;-57
2021/03/30 14:22:45;;;;;;;15.60;6.60;;;22.10;27.40;;;;;;20840303;28;20045;-56
2021/03/30 14:32:46;;;;;;;9.32;3.17;;;22.20;28.00;;;;;;20839430;28;20021;-58
2021/03/30 14:42:55;;;;;;;10.18;3.85;;;22.30;27.80;;;;;;20839164;28;20040;-56
2021/03/30 14:53:04;;;;;;;11.38;3.28;;;22.20;28.00;;;;;;20838696;28;20030;-57
2021/03/30 15:13:15;;;;;;;12.55;4.07;;;22.30;27.90;;;;;;20837038;28;20112;-56
2021/03/30 15:23:15;;;;;;;11.65;3.42;;;22.30;28.40;;;;;;20835648;28;20080;-56
2021/03/30 15:33:16;;;;;;;11.10;3.05;;;22.40;27.90;;;;;;20835446;28;20152;-58
2021/03/30 15:43:17;;;;;;;12.13;3.03;;;22.30;27.70;;;;;;20832880;28;20037;-58
2021/03/30 15:53:20;;;;;;;12.95;4.57;;;22.20;27.90;;;;;;20833167;28;20057;-56
2021/03/30 16:03:21;;;;;;;13.25;4.03;;;22.10;27.90;;;;;;20832638;28;20033;-55
2021/03/30 16:13:22;;;;;;;9.68;3.17;;;22.10;28.10;;;;;;20814419;28;20080;-55
2021/03/30 16:23:23;;;;;;;10.60;3.78;;;22.00;27.60;;;;;;20831835;28;20046;-57
2021/03/30 16:33:23;;;;;;;14.82;3.50;;;21.80;28.00;;;;;;20831518;28;20031;-57
2021/03/30 16:43:24;;;;;;;10.82;3.90;;;21.70;27.90;;;;;;20830705;28;20124;-57
2021/03/30 16:53:25;;;;;;;9.00;3.00;;;21.60;28.00;;;;;;20840007;28;20503;-58
2021/03/30 17:03:27;;;;;;;16.92;3.42;;;21.50;28.30;;;;;;20846387;28;20393;-58
2021/03/30 17:13:28;;;;;;;9.40;2.88;;;21.40;28.50;;;;;;20847126;28;20096;-58
2021/03/30 17:23:28;;;;;;;18.52;4.25;;;21.20;28.40;;;;;;20844584;28;20073;-55
2021/03/30 17:33:29;;;;;;;14.68;3.45;;;21.00;28.50;;;;;;20845000;28;20097;-58
2021/03/30 17:43:31;;;;;;;18.92;3.50;;;20.90;28.50;;;;;;20842475;28;20045;-57
2021/03/30 17:53:32;;;;;;;11.75;4.22;;;20.60;29.00;;;;;;20840864;28;20109;-58
2021/03/30 18:03:32;;;;;;;12.52;4.20;;;20.30;29.40;;;;;;20840025;28;20065;-58
2021/03/30 18:13:34;;;;;;;15.10;4.43;;;20.20;29.60;;;;;;20840217;28;20061;-57
2021/03/30 18:23:37;;;;;;;11.48;3.25;;;20.10;30.00;;;;;;20838896;28;20184;-57
2021/03/30 18:33:38;;;;;;;15.57;4.47;;;19.90;30.30;;;;;;20868178;28;20480;-56
2021/03/30 18:43:38;;;;;;;13.48;4.95;;;19.70;30.60;;;;;;20904808;28;20460;-58
2021/03/30 18:53:39;;;;;;;16.98;6.13;;;19.50;30.90;;;;;;20918740;28;20025;-59
2021/03/30 19:03:40;;;;;;;11.85;4.75;;;19.50;31.10;;;;;;20917695;28;20056;-58
2021/03/30 19:13:40;;;;;;;15.15;4.38;;;19.40;31.50;;;;;;20916591;28;20029;-56
2021/03/30 19:23:41;;;;;;;14.48;4.47;;;19.20;31.10;;;;;;20915787;28;20536;-56
2021/03/30 19:33:48;;;;;;;13.77;4.68;;;19.20;31.20;;;;;;20915875;28;20100;-55
2021/03/30 19:43:48;;;;;;;15.65;4.68;;;19.10;31.30;;;;;;20917041;28;20499;-57
2021/03/30 19:53:49;;;;;;;11.40;3.92;;;19.10;31.10;;;;;;20915905;28;20017;-56
2021/03/30 20:03:50;;;;;;;14.80;4.40;;;19.00;30.90;;;;;;20914521;28;20064;-56
2021/03/30 20:13:51;;;;;;;14.73;3.63;;;18.90;30.70;;;;;;20915232;28;20052;-57
2021/03/30 20:23:52;;;;;;;11.75;4.10;;;18.70;31.00;;;;;;20913484;28;20095;-56
2021/03/30 20:33:53;;;;;;;9.68;3.40;;;18.60;31.40;;;;;;20914089;28;20031;-56
2021/03/30 20:43:54;;;;;;;11.82;4.00;;;18.50;31.40;;;;;;20912516;28;20128;-56
2021/03/30 20:53:55;;;;;;;11.43;4.07;;;18.30;32.10;;;;;;20911982;28;20148;-55
2021/03/30 21:03:56;;;;;;;5.97;2.63;;;18.20;32.60;;;;;;20912838;28;20033;-58
2021/03/30 21:14:00;;;;;;;12.40;3.90;;;18.10;32.80;;;;;;20912579;28;20104;-58
2021/03/30 21:24:01;;;;;;;;;;;18.00;32.90;;;;;;20911789;28;20084;-55
2021/03/30 21:34:02;;;;;;;9.15;3.92;;;17.80;33.40;;;;;;20926925;28;20374;-54
2021/03/30 21:44:03;;;;;;;12.43;4.50;;;17.70;32.90;;;;;;20926120;28;20398;-56
2021/03/30 21:54:04;;;;;;;8.25;3.30;;;17.70;32.60;;;;;;20925998;28;20463;-56
2021/03/30 22:04:05;;;;;;;8.40;3.22;;;17.60;31.90;;;;;;20925633;28;20048;-55
2021/03/30 22:14:09;;;;;;;11.00;3.08;;;17.30;31.30;;;;;;20924416;28;20423;-61
2021/03/30 22:24:10;;;;;;;11.20;3.13;;;17.20;30.50;;;;;;20923004;28;20053;-58
2021/03/30 22:34:11;;;;;;;10.38;3.38;;;17.10;30.30;;;;;;20922637;28;20021;-55
2021/03/30 22:44:12;;;;;;;11.43;3.00;;;17.00;30.40;;;;;;20921966;28;20040;-56
2021/03/30 22:54:14;;;;;;;9.32;3.28;;;16.90;30.90;;;;;;20920633;28;20025;-55
2021/03/30 23:04:15;;;;;;;11.40;3.90;;;16.70;30.90;;;;;;20919954;28;20040;-55
2021/03/30 23:14:15;;;;;;;11.93;2.92;;;16.70;31.20;;;;;;20919939;28;20025;-55
2021/03/30 23:24:16;;;;;;;9.48;2.75;;;16.60;31.40;;;;;;20918450;28;20552;-58
2021/03/30 23:34:17;;;;;;;9.57;2.78;;;16.50;31.80;;;;;;20917557;28;20021;-56
2021/03/30 23:44:18;;;;;;;10.02;3.50;;;16.40;32.30;;;;;;20917517;28;20087;-58
2021/03/30 23:54:18;;;;;;;9.88;3.80;;;16.30;32.30;;;;;;20916282;28;20033;-58
